createdAt,value
2022-12-11T00:00:41.583Z,70.21
2022-12-11T00:03:12.775Z,70.05
2022-12-11T00:05:42.652Z,70.21
2022-12-11T00:08:09.205Z,69.90
2022-12-11T00:10:38.141Z,70.40
2022-12-11T00:13:05.183Z,70.18
2022-12-11T00:15:32.308Z,70.26
2022-12-11T00:17:58.843Z,70.23
2022-12-11T00:20:25.337Z,70.07
2022-12-11T00:22:51.834Z,70.02
2022-12-11T00:25:18.413Z,70.09
2022-12-11T00:27:46.630Z,70.09
2022-12-11T00:30:14.499Z,69.98
2022-12-11T00:32:41.302Z,69.93
2022-12-11T00:35:08.617Z,70.06
2022-12-11T00:37:35.560Z,69.98
2022-12-11T00:40:02.187Z,70.22
2022-12-11T00:42:28.685Z,70.09
2022-12-11T00:44:56.358Z,70.13
2022-12-11T00:47:22.819Z,69.84
2022-12-11T00:49:50.179Z,70.07
2022-12-11T00:52:18.019Z,69.92
2022-12-11T00:54:45.200Z,70.04
2022-12-11T00:57:11.861Z,69.98
2022-12-11T00:59:40.641Z,69.83
2022-12-11T01:02:11.812Z,70.09
2022-12-11T01:04:46.694Z,69.98
2022-12-11T01:07:14.486Z,69.95
2022-12-11T01:10:02.899Z,70.06
2022-12-11T01:12:35.206Z,70.01
2022-12-11T01:15:08.259Z,69.97
2022-12-11T01:17:39.418Z,69.99
2022-12-11T01:20:12.228Z,70.13
2022-12-11T01:22:44.715Z,70.00
2022-12-11T01:25:17.294Z,70.05
2022-12-11T01:27:48.959Z,70.20
2022-12-11T01:30:22.156Z,69.89
2022-12-11T01:32:54.609Z,69.97
2022-12-11T01:35:26.425Z,69.96
2022-12-11T01:37:56.661Z,69.89
2022-12-11T01:40:23.693Z,69.87
2022-12-11T01:42:50.417Z,69.90
2022-12-11T01:45:27.017Z,69.87
2022-12-11T01:48:00.106Z,69.61
2022-12-11T01:50:27.841Z,69.97
2022-12-11T01:52:54.670Z,70.00
2022-12-11T01:55:21.754Z,69.93
2022-12-11T01:57:50.944Z,69.88
2022-12-11T02:00:18.111Z,69.62
2022-12-11T02:02:46.057Z,69.66
2022-12-11T02:05:13.119Z,69.70
2022-12-11T02:07:54.273Z,69.87
2022-12-11T02:10:24.377Z,69.68
2022-12-11T02:13:05.016Z,69.79
2022-12-11T02:15:37.869Z,69.74
2022-12-11T02:18:16.895Z,69.82
2022-12-11T02:20:48.480Z,69.72
2022-12-11T02:23:17.811Z,69.74
2022-12-11T02:26:16.689Z,69.65
2022-12-11T02:28:55.984Z,69.81
2022-12-11T02:31:47.813Z,69.71
2022-12-11T02:34:21.203Z,69.71
2022-12-11T02:36:52.824Z,69.84
2022-12-11T02:39:22.488Z,69.59
2022-12-11T02:41:50.945Z,69.55
2022-12-11T02:44:25.635Z,69.67
2022-12-11T02:46:53.057Z,69.63
2022-12-11T02:49:21.623Z,69.81
2022-12-11T02:51:49.137Z,69.63
2022-12-11T02:54:23.719Z,69.68
2022-12-11T02:57:04.761Z,69.68
2022-12-11T02:59:36.806Z,69.59
2022-12-11T03:02:04.228Z,69.59
2022-12-11T03:04:31.949Z,69.85
2022-12-11T03:07:11.931Z,69.50
2022-12-11T03:09:47.029Z,69.57
2022-12-11T03:12:18.581Z,69.53
2022-12-11T03:14:45.832Z,69.51
2022-12-11T03:17:17.215Z,69.53
2022-12-11T03:20:00.482Z,69.46
2022-12-11T03:22:50.667Z,69.35
2022-12-11T03:25:22.062Z,69.70
2022-12-11T03:27:57.844Z,69.66
2022-12-11T03:30:26.681Z,69.65
2022-12-11T03:32:58.075Z,69.46
2022-12-11T03:35:48.050Z,69.52
2022-12-11T03:38:50.055Z,69.44
2022-12-11T03:41:20.023Z,69.60
2022-12-11T03:43:48.391Z,69.45
2022-12-11T03:46:16.338Z,69.53
2022-12-11T03:48:46.653Z,69.63
2022-12-11T03:51:14.152Z,69.25
2022-12-11T03:53:40.987Z,69.28
2022-12-11T03:56:10.606Z,69.48
2022-12-11T03:58:37.206Z,69.34
2022-12-11T04:01:03.748Z,69.49
2022-12-11T04:03:30.293Z,69.36
2022-12-11T04:05:57.437Z,69.47
2022-12-11T04:08:24.280Z,69.16
2022-12-11T04:11:14.390Z,69.37
2022-12-11T04:13:42.012Z,69.37
2022-12-11T04:16:08.867Z,69.48
2022-12-11T04:18:53.968Z,69.59
2022-12-11T04:21:39.839Z,69.21
2022-12-11T04:24:16.532Z,69.16
2022-12-11T04:26:47.232Z,69.21
2022-12-11T04:29:14.844Z,69.18
2022-12-11T04:31:41.423Z,69.12
2022-12-11T04:34:08.190Z,69.13
2022-12-11T04:36:35.895Z,69.35
2022-12-11T04:39:02.764Z,69.14
2022-12-11T04:41:29.465Z,69.00
2022-12-11T04:43:55.973Z,69.14
2022-12-11T04:46:24.268Z,68.94
2022-12-11T04:48:57.095Z,69.18
2022-12-11T04:51:24.847Z,68.97
2022-12-11T04:53:51.476Z,69.26
2022-12-11T04:56:18.120Z,69.27
2022-12-11T04:58:45.743Z,68.81
2022-12-11T05:01:15.185Z,69.13
2022-12-11T05:03:41.920Z,69.01
2022-12-11T05:06:10.198Z,68.75
2022-12-11T05:08:38.590Z,69.04
2022-12-11T05:11:07.594Z,69.05
2022-12-11T05:13:34.639Z,68.90
2022-12-11T05:16:06.769Z,68.78
2022-12-11T05:18:33.623Z,68.85
2022-12-11T05:21:02.929Z,68.63
2022-12-11T05:23:29.862Z,68.85
2022-12-11T05:26:02.305Z,68.47
2022-12-11T05:28:32.971Z,68.67
2022-12-11T05:31:02.125Z,68.60
2022-12-11T05:33:29.721Z,68.57
2022-12-11T05:35:56.636Z,68.44
2022-12-11T05:38:23.694Z,68.49
2022-12-11T05:41:18.166Z,68.06
2022-12-11T05:43:44.970Z,68.31
2022-12-11T05:46:19.577Z,68.40
2022-12-11T05:48:48.434Z,68.58
2022-12-11T05:51:16.275Z,68.35
2022-12-11T05:53:43.846Z,67.99
2022-12-11T05:56:15.995Z,68.39
2022-12-11T05:58:43.802Z,68.37
2022-12-11T06:01:20.901Z,68.40
2022-12-11T06:03:47.539Z,68.55
2022-12-11T06:06:14.128Z,68.44
2022-12-11T06:08:40.721Z,68.22
2022-12-11T06:11:07.714Z,68.45
2022-12-11T06:13:35.400Z,68.37
2022-12-11T06:16:03.327Z,68.25
2022-12-11T06:18:30.100Z,68.08
2022-12-11T06:20:56.824Z,68.35
2022-12-11T06:23:24.056Z,68.39
2022-12-11T06:25:50.586Z,68.00
2022-12-11T06:28:17.503Z,68.26
2022-12-11T06:30:44.957Z,68.28
2022-12-11T06:33:12.697Z,68.27
2022-12-11T06:35:42.346Z,68.37
2022-12-11T06:38:10.741Z,68.15
2022-12-11T06:40:38.173Z,68.24
2022-12-11T06:43:04.744Z,68.10
2022-12-11T06:45:31.399Z,67.98
2022-12-11T06:47:58.948Z,68.17
2022-12-11T06:50:25.654Z,68.42
2022-12-11T06:52:52.253Z,68.24
2022-12-11T06:55:18.770Z,68.16
2022-12-11T06:57:45.244Z,68.16
2022-12-11T07:00:12.416Z,68.22
2022-12-11T07:02:39.057Z,68.10
2022-12-11T07:05:05.962Z,68.24
2022-12-11T07:07:32.546Z,67.91
2022-12-11T07:10:05.787Z,68.06
2022-12-11T07:12:34.400Z,68.04
2022-12-11T07:15:00.914Z,68.10
2022-12-11T07:17:29.494Z,68.14
2022-12-11T07:19:56.104Z,67.72
2022-12-11T07:22:24.297Z,68.00
2022-12-11T07:24:50.876Z,67.82
2022-12-11T07:27:17.422Z,68.04
2022-12-11T07:29:44.988Z,68.02
2022-12-11T07:32:11.699Z,67.95
2022-12-11T07:34:38.308Z,67.87
2022-12-11T07:37:04.976Z,68.10
2022-12-11T07:39:31.611Z,68.20
2022-12-11T07:41:58.086Z,68.18
2022-12-11T07:44:24.664Z,68.29
2022-12-11T07:46:51.253Z,68.02
2022-12-11T07:49:17.932Z,68.14
2022-12-11T07:51:44.705Z,67.68
2022-12-11T07:54:17.053Z,68.23
2022-12-11T07:56:51.177Z,67.66
2022-12-11T07:59:20.937Z,68.13
2022-12-11T08:01:47.698Z,67.87
2022-12-11T08:04:15.905Z,67.89
2022-12-11T08:06:43.345Z,67.98
2022-12-11T08:09:19.062Z,67.84
2022-12-11T08:11:50.417Z,67.90
2022-12-11T08:14:18.893Z,67.92
2022-12-11T08:16:45.863Z,67.92
2022-12-11T08:19:12.860Z,68.21
2022-12-11T08:21:40.372Z,68.26
2022-12-11T08:24:08.323Z,68.29
2022-12-11T08:26:34.869Z,67.91
2022-12-11T08:29:02.448Z,67.85
2022-12-11T08:31:29.616Z,68.20
2022-12-11T08:33:56.741Z,67.88
2022-12-11T08:36:24.078Z,68.44
2022-12-11T08:38:51.736Z,68.08
2022-12-11T08:41:21.254Z,68.53
2022-12-11T08:43:49.276Z,68.51
2022-12-11T08:46:16.034Z,68.43
2022-12-11T08:48:43.633Z,68.55
2022-12-11T08:51:15.684Z,68.38
2022-12-11T08:53:45.400Z,68.38
2022-12-11T08:56:15.098Z,68.66
2022-12-11T08:58:41.937Z,68.88
2022-12-11T09:01:15.067Z,68.76
2022-12-11T09:03:42.376Z,68.74
2022-12-11T09:06:15.394Z,68.42
2022-12-11T09:08:47.270Z,68.86
2022-12-11T09:11:25.801Z,68.72
2022-12-11T09:13:55.081Z,68.87
2022-12-11T09:16:28.143Z,69.07
2022-12-11T09:18:57.654Z,68.85
2022-12-11T09:21:27.445Z,68.95
2022-12-11T09:23:58.306Z,69.17
2022-12-11T09:26:26.337Z,68.91
2022-12-11T09:28:53.364Z,69.24
2022-12-11T09:31:23.453Z,68.68
2022-12-11T09:33:52.299Z,69.09
2022-12-11T09:36:18.952Z,69.28
2022-12-11T09:38:46.083Z,69.24
2022-12-11T09:41:21.608Z,69.29
2022-12-11T09:43:52.214Z,69.07
2022-12-11T09:46:22.568Z,69.15
2022-12-11T09:48:53.448Z,69.28
2022-12-11T09:51:31.851Z,69.19
2022-12-11T09:54:00.922Z,69.50
2022-12-11T09:56:34.307Z,69.16
2022-12-11T09:59:26.480Z,69.53
2022-12-11T10:02:03.315Z,69.47
2022-12-11T10:04:32.542Z,69.55
2022-12-11T10:07:43.943Z,69.67
2022-12-11T10:10:25.680Z,69.47
2022-12-11T10:13:06.713Z,69.35
2022-12-11T10:15:39.712Z,69.43
2022-12-11T10:18:14.040Z,69.86
2022-12-11T10:20:42.691Z,69.78
2022-12-11T10:23:18.224Z,69.37
2022-12-11T10:26:03.933Z,69.51
2022-12-11T10:28:30.544Z,69.33
2022-12-11T10:31:20.048Z,69.73
2022-12-11T10:33:59.232Z,69.42
2022-12-11T10:36:38.113Z,69.65
2022-12-11T10:39:19.678Z,69.60
2022-12-11T10:41:49.032Z,69.83
2022-12-11T10:44:21.686Z,69.83
2022-12-11T10:47:01.715Z,69.75
2022-12-11T10:49:33.333Z,69.45
2022-12-11T10:52:01.594Z,69.45
2022-12-11T10:54:40.573Z,69.49
2022-12-11T10:57:11.793Z,69.64
2022-12-11T10:59:43.406Z,69.41
2022-12-11T11:02:26.747Z,69.71
2022-12-11T11:04:56.626Z,69.71
2022-12-11T11:07:30.194Z,69.81
2022-12-11T11:10:27.699Z,69.81
2022-12-11T11:13:02.151Z,69.57
2022-12-11T11:15:30.873Z,69.75
2022-12-11T11:18:09.535Z,69.74
2022-12-11T11:20:36.204Z,70.06
2022-12-11T11:23:11.256Z,69.61
2022-12-11T11:25:37.804Z,69.81
2022-12-11T11:28:07.369Z,69.59
2022-12-11T11:30:41.070Z,69.63
2022-12-11T11:33:21.326Z,69.79
2022-12-11T11:35:57.750Z,69.59
2022-12-11T11:38:42.834Z,69.82
2022-12-11T11:41:18.411Z,69.87
2022-12-11T11:44:17.464Z,69.78
2022-12-11T11:46:47.528Z,69.52
2022-12-11T11:49:26.222Z,69.90
2022-12-11T11:52:08.561Z,69.68
2022-12-11T11:54:39.773Z,69.55
2022-12-11T11:57:42.451Z,69.78
2022-12-11T12:00:31.941Z,69.66
2022-12-11T12:03:11.373Z,69.64
2022-12-11T12:05:49.033Z,69.73
2022-12-11T12:08:54.263Z,69.84
2022-12-11T12:11:37.521Z,69.73
2022-12-11T12:14:50.556Z,69.60
2022-12-11T12:17:16.857Z,69.49
2022-12-11T12:19:46.592Z,69.67
2022-12-11T12:22:37.911Z,69.93
2022-12-11T12:25:26.785Z,69.13
2022-12-11T12:28:20.968Z,69.62
2022-12-11T12:31:24.831Z,69.44
2022-12-11T12:34:02.818Z,69.63
2022-12-11T12:37:01.203Z,69.85
2022-12-11T12:39:53.985Z,69.71
2022-12-11T12:42:45.025Z,69.78
2022-12-11T12:45:14.694Z,69.55
2022-12-11T12:47:46.648Z,69.63
2022-12-11T12:50:19.884Z,69.57
2022-12-11T12:52:48.379Z,69.67
2022-12-11T12:55:31.896Z,69.64
2022-12-11T12:58:01.660Z,69.72
2022-12-11T13:00:29.465Z,69.79
2022-12-11T13:02:56.633Z,69.66
2022-12-11T13:05:30.347Z,69.43
2022-12-11T13:08:01.298Z,69.50
2022-12-11T13:10:35.303Z,69.58
2022-12-11T13:13:03.807Z,69.52
2022-12-11T13:15:40.896Z,69.34
2022-12-11T13:18:31.325Z,69.42
2022-12-11T13:20:58.289Z,69.52
2022-12-11T13:23:33.684Z,69.40
2022-12-11T13:26:03.630Z,69.50
2022-12-11T13:28:39.360Z,69.54
2022-12-11T13:31:14.982Z,69.60
2022-12-11T13:33:45.435Z,69.46
2022-12-11T13:36:36.085Z,69.48
2022-12-11T13:39:08.065Z,69.35
2022-12-11T13:41:37.425Z,69.39
2022-12-11T13:44:06.983Z,69.50
2022-12-11T13:46:36.639Z,69.37
2022-12-11T13:49:06.924Z,69.25
2022-12-11T13:51:36.109Z,69.25
2022-12-11T13:54:18.043Z,68.97
2022-12-11T13:57:08.912Z,69.10
2022-12-11T13:59:38.173Z,69.02
2022-12-11T14:02:25.129Z,69.22
2022-12-11T14:04:59.806Z,68.88
2022-12-11T14:07:40.917Z,69.00
2022-12-11T14:10:14.594Z,68.96
2022-12-11T14:12:59.587Z,68.97
2022-12-11T14:15:28.156Z,68.82
2022-12-11T14:17:56.092Z,68.73
2022-12-11T14:20:27.740Z,68.79
2022-12-11T14:23:17.908Z,68.61
2022-12-11T14:25:59.900Z,68.53
2022-12-11T14:28:28.696Z,68.82
2022-12-11T14:30:59.302Z,68.92
2022-12-11T14:33:31.932Z,68.48
2022-12-11T14:35:59.832Z,68.50
2022-12-11T14:38:39.633Z,68.64
2022-12-11T14:41:42.902Z,68.62
2022-12-11T14:44:18.072Z,68.59
2022-12-11T14:46:56.203Z,68.64
2022-12-11T14:49:33.641Z,68.45
2022-12-11T14:52:01.342Z,68.53
2022-12-11T14:54:34.333Z,68.53
2022-12-11T14:57:09.027Z,68.57
2022-12-11T14:59:44.269Z,68.77
2022-12-11T15:02:34.142Z,68.36
2022-12-11T15:05:18.219Z,68.47
2022-12-11T15:08:00.429Z,68.50
2022-12-11T15:11:01.714Z,68.30
2022-12-11T15:13:28.620Z,68.29
2022-12-11T15:15:56.135Z,68.48
2022-12-11T15:18:33.089Z,68.17
2022-12-11T15:21:03.150Z,68.39
2022-12-11T15:23:30.286Z,68.39
2022-12-11T15:25:59.450Z,68.36
2022-12-11T15:28:33.224Z,68.23
2022-12-11T15:31:06.016Z,68.38
2022-12-11T15:33:34.795Z,68.59
2022-12-11T15:36:06.879Z,68.42
2022-12-11T15:38:40.786Z,68.28
2022-12-11T15:41:15.388Z,68.32
2022-12-11T15:43:42.959Z,68.40
2022-12-11T15:46:09.944Z,68.59
2022-12-11T15:48:37.028Z,68.39
2022-12-11T15:51:03.796Z,68.54
2022-12-11T15:53:30.588Z,68.39
2022-12-11T15:55:58.777Z,68.34
2022-12-11T15:58:27.319Z,68.49
2022-12-11T16:00:54.763Z,68.42
2022-12-11T16:03:23.016Z,68.35
2022-12-11T16:05:52.217Z,68.32
2022-12-11T16:08:21.670Z,68.32
2022-12-11T16:10:49.071Z,68.27
2022-12-11T16:13:15.710Z,68.17
2022-12-11T16:15:47.668Z,68.28
2022-12-11T16:18:17.889Z,68.40
2022-12-11T16:20:45.938Z,68.32
2022-12-11T16:23:14.303Z,68.06
2022-12-11T16:25:42.694Z,68.36
2022-12-11T16:28:12.615Z,68.34
2022-12-11T16:30:39.793Z,68.49
2022-12-11T16:33:12.406Z,68.51
2022-12-11T16:35:40.106Z,68.33
2022-12-11T16:38:07.737Z,68.44
2022-12-11T16:40:34.264Z,68.30
2022-12-11T16:43:00.886Z,68.41
2022-12-11T16:45:27.997Z,68.25
2022-12-11T16:47:54.981Z,68.38
2022-12-11T16:50:24.034Z,68.32
2022-12-11T16:52:50.619Z,68.08
2022-12-11T16:55:21.061Z,68.35
2022-12-11T16:57:48.433Z,68.43
2022-12-11T17:00:15.784Z,68.57
2022-12-11T17:02:42.426Z,68.56
2022-12-11T17:05:09.212Z,68.37
2022-12-11T17:07:35.915Z,68.34
2022-12-11T17:10:03.238Z,68.30
2022-12-11T17:12:30.770Z,68.41
2022-12-11T17:14:59.349Z,68.35
2022-12-11T17:17:25.979Z,68.44
2022-12-11T17:19:52.589Z,68.38
2022-12-11T17:22:19.277Z,68.49
2022-12-11T17:24:45.904Z,68.36
2022-12-11T17:27:12.549Z,68.46
2022-12-11T17:29:39.938Z,68.29
2022-12-11T17:32:06.895Z,68.51
2022-12-11T17:34:38.109Z,68.38
2022-12-11T17:37:05.971Z,68.66
2022-12-11T17:39:32.910Z,68.43
2022-12-11T17:41:59.612Z,68.42
2022-12-11T17:44:26.894Z,68.55
2022-12-11T17:46:53.733Z,68.32
2022-12-11T17:49:20.418Z,68.51
2022-12-11T17:51:47.858Z,68.47
2022-12-11T17:54:14.494Z,68.53
2022-12-11T17:56:41.357Z,68.45
2022-12-11T17:59:07.971Z,68.11
2022-12-11T18:01:34.689Z,68.23
2022-12-11T18:04:02.408Z,68.52
2022-12-11T18:06:29.919Z,68.60
2022-12-11T18:08:57.190Z,68.56
2022-12-11T18:11:24.024Z,68.52
2022-12-11T18:13:52.204Z,68.49
2022-12-11T18:16:36.714Z,68.47
2022-12-11T18:19:04.323Z,68.35
2022-12-11T18:21:33.731Z,68.44
2022-12-11T18:24:01.435Z,68.67
2022-12-11T18:26:28.949Z,68.69
2022-12-11T18:28:55.587Z,68.49
2022-12-11T18:31:23.487Z,68.53
2022-12-11T18:33:50.745Z,68.61
2022-12-11T18:36:19.461Z,68.52
2022-12-11T18:38:47.898Z,68.67
2022-12-11T18:41:16.285Z,68.53
2022-12-11T18:43:42.945Z,68.38
2022-12-11T18:46:14.039Z,68.46
2022-12-11T18:48:42.332Z,68.58
2022-12-11T18:51:13.229Z,68.61
2022-12-11T18:53:40.701Z,68.63
2022-12-11T18:56:10.064Z,68.40
2022-12-11T18:58:36.827Z,68.66
2022-12-11T19:01:09.248Z,68.43
2022-12-11T19:03:36.862Z,68.38
2022-12-11T19:06:09.102Z,68.58
2022-12-11T19:08:35.753Z,68.38
2022-12-11T19:11:02.335Z,68.47
2022-12-11T19:13:28.953Z,68.40
2022-12-11T19:15:55.563Z,68.19
2022-12-11T19:18:22.246Z,68.30
2022-12-11T19:20:51.097Z,68.19
2022-12-11T19:23:23.194Z,68.48
2022-12-11T19:25:50.517Z,68.37
2022-12-11T19:28:18.845Z,68.32
2022-12-11T19:30:47.546Z,68.52
2022-12-11T19:33:14.829Z,68.18
2022-12-11T19:35:42.070Z,68.40
2022-12-11T19:38:08.851Z,68.14
2022-12-11T19:40:43.989Z,68.10
2022-12-11T19:43:11.363Z,68.29
2022-12-11T19:45:38.498Z,68.15
2022-12-11T19:48:05.646Z,68.31
2022-12-11T19:50:36.604Z,68.22
2022-12-11T19:53:05.740Z,68.27
2022-12-11T19:55:34.744Z,68.41
2022-12-11T19:58:03.361Z,68.34
2022-12-11T20:00:33.262Z,68.15
2022-12-11T20:02:59.825Z,68.57
2022-12-11T20:05:26.484Z,68.47
2022-12-11T20:07:53.055Z,68.28
2022-12-11T20:10:19.656Z,68.27
2022-12-11T20:12:46.440Z,68.43
2022-12-11T20:15:13.399Z,68.43
2022-12-11T20:17:44.551Z,68.15
2022-12-11T20:20:11.758Z,68.27
2022-12-11T20:22:38.406Z,68.26
2022-12-11T20:25:05.291Z,68.20
2022-12-11T20:27:31.897Z,68.27
2022-12-11T20:29:58.449Z,68.29
2022-12-11T20:32:25.728Z,68.45
2022-12-11T20:35:00.680Z,68.18
2022-12-11T20:37:28.998Z,68.04
2022-12-11T20:39:55.790Z,68.30
2022-12-11T20:42:24.129Z,68.07
2022-12-11T20:44:50.677Z,68.14
2022-12-11T20:47:21.396Z,68.12
2022-12-11T20:49:49.028Z,68.07
2022-12-11T20:52:17.438Z,68.18
2022-12-11T20:54:44.250Z,68.00
2022-12-11T20:57:12.007Z,68.15
2022-12-11T20:59:38.586Z,68.04
2022-12-11T21:02:05.564Z,67.98
2022-12-11T21:04:32.316Z,67.77
2022-12-11T21:07:00.165Z,68.08
2022-12-11T21:09:27.801Z,68.02
2022-12-11T21:11:58.167Z,68.03
2022-12-11T21:14:24.926Z,67.96
2022-12-11T21:16:51.750Z,68.37
2022-12-11T21:19:20.413Z,68.03
2022-12-11T21:21:48.530Z,67.98
2022-12-11T21:24:22.139Z,68.16
2022-12-11T21:26:49.659Z,68.00
2022-12-11T21:29:16.998Z,68.16
2022-12-11T21:31:43.763Z,68.21
2022-12-11T21:34:10.703Z,68.02
2022-12-11T21:36:37.641Z,68.09
2022-12-11T21:39:04.478Z,68.08
2022-12-11T21:41:31.134Z,68.16
2022-12-11T21:46:44.488Z,68.19
2022-12-11T21:49:12.077Z,68.05
2022-12-11T21:51:46.724Z,67.83
2022-12-11T21:54:16.688Z,68.14
2022-12-11T21:56:43.793Z,68.02
2022-12-11T21:59:10.463Z,67.79
2022-12-11T22:01:43.826Z,68.10
2022-12-11T22:04:10.881Z,68.07
2022-12-11T22:06:37.880Z,68.30
2022-12-11T22:09:05.496Z,68.12
2022-12-11T22:11:34.379Z,67.97
2022-12-11T22:14:01.710Z,67.77
2022-12-11T22:16:28.369Z,67.82
2022-12-11T22:18:54.992Z,68.08
2022-12-11T22:21:21.733Z,67.97
2022-12-11T22:23:48.350Z,68.01
2022-12-11T22:26:22.759Z,68.16
2022-12-11T22:28:49.546Z,67.90
2022-12-11T22:31:20.495Z,68.04
2022-12-11T22:33:49.978Z,68.01
2022-12-11T22:36:18.671Z,68.25
2022-12-11T22:38:46.218Z,68.06
2022-12-11T22:41:22.662Z,68.09
2022-12-11T22:43:49.785Z,67.92
2022-12-11T22:46:18.409Z,67.84
2022-12-11T22:48:45.111Z,68.05
2022-12-11T22:51:12.537Z,68.14
2022-12-11T22:53:39.248Z,68.10
2022-12-11T22:56:07.740Z,67.86
2022-12-11T22:58:35.203Z,67.92
2022-12-11T23:01:02.783Z,67.88
2022-12-11T23:03:29.464Z,68.06
2022-12-11T23:05:56.452Z,67.97
2022-12-11T23:08:24.710Z,67.97
2022-12-11T23:10:51.933Z,67.76
2022-12-11T23:13:18.469Z,67.80
2022-12-11T23:15:45.015Z,67.87
2022-12-11T23:18:11.950Z,67.75
2022-12-11T23:20:38.488Z,67.97
2022-12-11T23:23:05.074Z,68.12
2022-12-11T23:25:31.719Z,67.79
2022-12-11T23:27:58.271Z,67.86
2022-12-11T23:30:25.075Z,67.87
2022-12-11T23:32:51.623Z,67.99
2022-12-11T23:35:18.308Z,67.88
2022-12-11T23:37:44.953Z,68.00
2022-12-11T23:40:14.179Z,68.07
2022-12-11T23:42:41.032Z,68.20
2022-12-11T23:45:08.029Z,67.94
2022-12-11T23:47:34.607Z,67.97
2022-12-11T23:50:01.187Z,67.91
2022-12-11T23:52:27.843Z,67.74
2022-12-11T23:54:55.358Z,67.80
2022-12-11T23:57:23.397Z,67.95
2022-12-11T23:59:50.071Z,68.15
